createdAt,value
2019-02-11T00:01:59.203Z,3.03
2019-02-11T00:07:10.257Z,2.70
2019-02-11T00:12:14.860Z,5.87
2019-02-11T00:17:20.285Z,3.47
2019-02-11T00:22:25.520Z,2.53
2019-02-11T00:27:31.641Z,3.47
2019-02-11T00:32:36.686Z,4.37
2019-02-11T00:37:41.659Z,5.00
2019-02-11T00:42:46.603Z,3.27
2019-02-11T00:47:51.693Z,3.47
2019-02-11T00:52:56.118Z,4.83
2019-02-11T00:58:04.285Z,5.37
2019-02-11T01:03:09.930Z,4.67
2019-02-11T01:08:14.912Z,2.63
2019-02-11T01:13:27.262Z,4.73
2019-02-11T01:18:25.125Z,4.67
2019-02-11T01:23:29.341Z,3.30
2019-02-11T01:28:35.902Z,2.07
2019-02-11T01:33:40.721Z,3.90
2019-02-11T01:38:45.014Z,2.07
2019-02-11T01:43:49.276Z,5.13
2019-02-11T01:48:53.611Z,5.03
2019-02-11T01:53:58.112Z,3.40
2019-02-11T01:59:02.524Z,3.77
2019-02-11T02:04:06.788Z,4.00
2019-02-11T02:09:11.224Z,5.27
2019-02-11T02:14:16.212Z,3.23
2019-02-11T02:19:21.720Z,11.93
2019-02-11T02:24:27.088Z,4.80
2019-02-11T02:29:32.090Z,3.97
2019-02-11T02:34:38.176Z,8.13
2019-02-11T02:39:42.989Z,9.70
2019-02-11T02:44:47.025Z,7.13
2019-02-11T02:49:51.728Z,5.27
2019-02-11T02:54:56.516Z,5.37
2019-02-11T03:00:00.867Z,4.00
2019-02-11T03:05:06.317Z,6.43
2019-02-11T03:10:11.319Z,6.77
2019-02-11T03:15:16.250Z,9.37
2019-02-11T03:20:21.051Z,4.30
2019-02-11T03:25:25.316Z,6.73
2019-02-11T03:30:30.024Z,8.90
2019-02-11T03:35:34.847Z,8.27
2019-02-11T03:40:39.746Z,8.07
2019-02-11T03:45:44.908Z,6.87
2019-02-11T03:50:50.074Z,5.83
2019-02-11T03:55:54.443Z,5.93
2019-02-11T04:00:59.102Z,8.17
2019-02-11T04:06:04.070Z,4.53
2019-02-11T04:11:08.797Z,5.13
2019-02-11T04:16:13.169Z,4.33
2019-02-11T04:21:18.387Z,7.47
2019-02-11T04:26:22.604Z,7.50
2019-02-11T04:31:26.723Z,6.03
2019-02-11T04:36:31.308Z,5.13
2019-02-11T04:41:35.461Z,2.80
2019-02-11T04:46:39.640Z,4.80
2019-02-11T04:51:44.540Z,7.23
2019-02-11T04:56:48.852Z,4.10
2019-02-11T05:01:53.000Z,4.53
2019-02-11T05:06:57.159Z,3.23
2019-02-11T05:12:01.448Z,4.43
2019-02-11T05:17:05.602Z,2.50
2019-02-11T05:22:09.581Z,3.07
2019-02-11T05:27:13.669Z,7.20
2019-02-11T05:32:18.024Z,4.87
2019-02-11T05:37:22.225Z,6.63
2019-02-11T05:42:26.501Z,5.93
2019-02-11T05:47:30.693Z,8.47
2019-02-11T05:52:35.280Z,10.03
2019-02-11T05:57:40.040Z,8.47
2019-02-11T06:02:44.377Z,12.27
2019-02-11T06:07:48.663Z,9.20
2019-02-11T06:12:52.853Z,11.13
2019-02-11T06:17:56.984Z,13.20
2019-02-11T06:23:01.234Z,8.37
2019-02-11T06:28:05.873Z,14.73
2019-02-11T06:33:10.260Z,13.40
2019-02-11T06:38:18.337Z,4.87
2019-02-11T06:43:22.754Z,9.30
2019-02-11T06:48:31.033Z,11.83
2019-02-11T06:53:35.280Z,12.07
2019-02-11T06:58:40.059Z,10.57
2019-02-11T07:03:44.386Z,14.20
2019-02-11T07:08:48.740Z,12.80
2019-02-11T07:13:53.545Z,11.67
2019-02-11T07:18:57.945Z,7.40
2019-02-11T07:24:03.049Z,13.43
2019-02-11T07:29:08.376Z,13.87
2019-02-11T07:34:12.669Z,19.27
2019-02-11T07:39:17.052Z,13.93
2019-02-11T07:44:38.325Z,8.37
2019-02-11T07:49:43.080Z,12.07
2019-02-11T07:54:48.391Z,9.23
2019-02-11T07:59:57.396Z,9.63
2019-02-11T08:05:06.918Z,9.07
2019-02-11T08:10:11.407Z,14.23
2019-02-11T08:15:22.092Z,12.47
2019-02-11T08:20:32.946Z,13.23
2019-02-11T08:25:55.592Z,13.90
2019-02-11T08:31:01.158Z,15.47
2019-02-11T08:36:08.166Z,14.70
2019-02-11T08:47:24.416Z,5.43
2019-02-11T08:52:28.802Z,10.73
2019-02-11T08:57:34.051Z,10.03
2019-02-11T09:02:39.493Z,10.30
2019-02-11T09:07:43.929Z,11.40
2019-02-11T09:12:49.165Z,18.20
2019-02-11T09:17:54.134Z,15.97
2019-02-11T09:22:58.474Z,16.77
2019-02-11T09:28:03.448Z,14.60
2019-02-11T09:33:08.323Z,12.27
2019-02-11T09:38:20.265Z,10.73
2019-02-11T09:43:26.256Z,11.13
2019-02-11T09:48:32.776Z,13.47
2019-02-11T09:53:53.491Z,12.77
2019-02-11T09:59:01.634Z,10.10
2019-02-11T10:04:10.065Z,14.53
2019-02-11T10:09:18.589Z,15.43
2019-02-11T10:14:30.222Z,9.60
2019-02-11T10:19:37.100Z,9.63
2019-02-11T10:24:46.573Z,13.23
2019-02-11T10:29:52.135Z,14.37
2019-02-11T10:34:57.043Z,13.87
2019-02-11T10:40:04.348Z,14.03
2019-02-11T10:45:09.825Z,12.80
2019-02-11T10:50:18.144Z,14.40
2019-02-11T10:55:26.716Z,7.93
2019-02-11T11:00:34.603Z,11.90
2019-02-11T11:05:42.397Z,10.90
2019-02-11T11:10:47.782Z,13.20
2019-02-11T11:16:12.302Z,8.10
2019-02-11T11:21:19.070Z,8.63
2019-02-11T11:26:27.318Z,7.60
2019-02-11T11:31:32.870Z,10.63
2019-02-11T11:36:37.239Z,6.83
2019-02-11T11:41:45.252Z,9.77
2019-02-11T11:46:50.386Z,12.03
2019-02-11T11:51:55.913Z,8.97
2019-02-11T11:57:08.468Z,11.43
2019-02-11T12:02:15.949Z,9.73
2019-02-11T12:07:21.123Z,10.37
2019-02-11T12:12:27.496Z,9.20
2019-02-11T12:17:31.916Z,9.50
2019-02-11T12:22:37.117Z,8.13
2019-02-11T12:27:44.196Z,9.40
2019-02-11T12:32:49.131Z,10.50
2019-02-11T12:37:56.367Z,15.00
2019-02-11T12:43:04.923Z,7.60
2019-02-11T12:48:12.103Z,6.80
2019-02-11T12:53:23.695Z,6.93
2019-02-11T12:58:28.268Z,7.63
2019-02-11T13:03:48.215Z,6.30
2019-02-11T13:08:53.171Z,6.97
2019-02-11T13:13:59.563Z,10.57
2019-02-11T13:19:03.819Z,10.53
2019-02-11T13:24:08.628Z,10.83
2019-02-11T13:29:13.031Z,7.83
2019-02-11T13:34:17.413Z,7.63
2019-02-11T13:39:22.381Z,8.17
2019-02-11T13:44:26.652Z,8.43
2019-02-11T13:49:33.497Z,5.33
2019-02-11T13:54:38.395Z,6.30
2019-02-11T13:59:45.993Z,6.53
2019-02-11T14:04:51.801Z,4.83
2019-02-11T14:09:56.904Z,6.23
2019-02-11T14:15:01.518Z,5.43
2019-02-11T14:20:06.038Z,6.40
2019-02-11T14:25:10.229Z,9.27
2019-02-11T14:30:17.281Z,10.97
2019-02-11T14:35:22.215Z,5.67
2019-02-11T14:40:33.260Z,10.23
2019-02-11T14:45:38.254Z,6.80
2019-02-11T14:50:44.363Z,14.97
2019-02-11T14:55:48.605Z,15.13
2019-02-11T15:00:53.633Z,8.83
2019-02-11T15:05:58.889Z,11.03
2019-02-11T15:11:06.389Z,8.57
2019-02-11T15:16:14.466Z,10.83
2019-02-11T15:21:22.246Z,15.47
2019-02-11T15:26:31.748Z,13.33
2019-02-11T15:31:37.243Z,10.33
2019-02-11T15:36:44.946Z,11.93
2019-02-11T15:41:48.863Z,10.70
2019-02-11T15:46:53.493Z,9.30
2019-02-11T15:52:03.448Z,11.70
2019-02-11T15:57:07.747Z,14.63
2019-02-11T16:02:15.809Z,7.60
2019-02-11T16:07:21.074Z,10.37
2019-02-11T16:12:25.586Z,13.77
2019-02-11T16:17:33.295Z,15.60
2019-02-11T16:22:38.458Z,9.93
2019-02-11T16:27:42.971Z,8.73
2019-02-11T16:32:47.965Z,10.10
2019-02-11T16:37:52.838Z,8.27
2019-02-11T16:42:57.331Z,6.03
2019-02-11T16:48:02.694Z,11.10
2019-02-11T16:53:07.002Z,6.93
2019-02-11T16:58:11.628Z,14.27
2019-02-11T17:03:16.537Z,11.10
2019-02-11T17:08:21.357Z,12.53
2019-02-11T17:13:25.804Z,12.47
2019-02-11T17:18:30.040Z,9.67
2019-02-11T17:23:34.737Z,6.43
2019-02-11T17:28:38.969Z,6.80
2019-02-11T17:33:45.073Z,11.53
2019-02-11T17:38:49.585Z,11.20
2019-02-11T17:43:56.357Z,8.40
2019-02-11T17:49:03.718Z,15.47
2019-02-11T17:54:14.419Z,10.53
2019-02-11T17:59:20.379Z,8.60
2019-02-11T18:04:30.057Z,8.40
2019-02-11T18:09:34.982Z,13.60
2019-02-11T18:14:39.791Z,8.23
2019-02-11T18:19:44.014Z,10.93
2019-02-11T18:24:48.200Z,12.80
2019-02-11T18:29:52.667Z,9.13
2019-02-11T18:34:56.839Z,9.53
2019-02-11T18:40:01.479Z,13.13
2019-02-11T18:45:06.220Z,12.37
2019-02-11T18:50:11.310Z,11.43
2019-02-11T18:55:16.262Z,8.50
2019-02-11T19:00:20.854Z,9.90
2019-02-11T19:05:24.962Z,10.10
2019-02-11T19:10:32.618Z,10.60
2019-02-11T19:15:39.250Z,12.70
2019-02-11T19:20:43.616Z,8.50
2019-02-11T19:25:49.443Z,14.53
2019-02-11T19:30:53.986Z,14.23
2019-02-11T19:35:58.357Z,7.53
2019-02-11T19:41:02.709Z,9.97
2019-02-11T19:46:08.364Z,7.70
2019-02-11T19:51:16.887Z,12.33
2019-02-11T19:56:21.138Z,11.03
2019-02-11T20:01:26.147Z,10.37
2019-02-11T20:06:30.437Z,9.60
2019-02-11T20:11:34.759Z,10.80
2019-02-11T20:16:39.119Z,12.60
2019-02-11T20:21:43.392Z,12.03
2019-02-11T20:26:47.733Z,14.63
2019-02-11T20:31:51.928Z,21.57
2019-02-11T20:36:56.070Z,9.17
2019-02-11T20:42:23.936Z,15.30
2019-02-11T20:47:28.548Z,11.70
2019-02-11T20:52:35.632Z,15.20
2019-02-11T20:57:41.823Z,15.20
2019-02-11T21:02:46.261Z,9.93
2019-02-11T21:07:51.266Z,12.30
2019-02-11T21:12:57.901Z,11.77
2019-02-11T21:18:02.584Z,12.47
2019-02-11T21:23:08.893Z,13.43
2019-02-11T21:28:15.805Z,12.27
2019-02-11T21:33:22.411Z,11.37
2019-02-11T21:38:29.281Z,11.27
2019-02-11T21:43:34.707Z,13.33
2019-02-11T21:48:45.742Z,11.47
2019-02-11T21:53:58.689Z,13.50
2019-02-11T21:58:58.645Z,9.13
2019-02-11T22:04:04.118Z,14.53
2019-02-11T22:09:09.426Z,9.07
2019-02-11T22:14:14.974Z,12.73
2019-02-11T22:19:26.144Z,11.07
2019-02-11T22:24:31.302Z,10.43
2019-02-11T22:29:43.107Z,13.20
2019-02-11T22:34:50.919Z,12.83
2019-02-11T22:39:58.748Z,13.60
2019-02-11T22:45:03.219Z,11.57
2019-02-11T22:50:08.110Z,12.17
2019-02-11T22:55:13.000Z,15.13
2019-02-11T23:00:31.703Z,11.33
2019-02-11T23:05:36.356Z,11.67
2019-02-11T23:10:41.239Z,13.47
2019-02-11T23:15:45.501Z,14.97
2019-02-11T23:20:52.050Z,6.20
2019-02-11T23:25:55.804Z,10.17
2019-02-11T23:31:00.191Z,8.47
2019-02-11T23:36:04.535Z,10.43
2019-02-11T23:41:09.738Z,11.53
2019-02-11T23:46:14.894Z,10.73
2019-02-11T23:51:19.106Z,16.47
2019-02-11T23:56:23.548Z,12.60
